createdAt,value
2023-05-02T17:18:41.021Z,88.70
2023-05-02T17:21:08.953Z,88.90
2023-05-02T17:23:36.862Z,88.30
2023-05-02T17:26:07.966Z,88.10
2023-05-02T17:28:36.624Z,88.80
2023-05-02T17:31:05.212Z,89.30
2023-05-02T17:33:33.298Z,89.70
2023-05-02T17:36:02.686Z,89.70
2023-05-02T17:38:30.545Z,90.10
2023-05-02T17:40:58.402Z,90.00
2023-05-02T17:43:26.250Z,90.20
2023-05-02T17:45:54.242Z,90.20
2023-05-02T17:48:22.185Z,90.30
2023-05-02T17:50:50.946Z,90.40
2023-05-02T17:53:20.178Z,90.30
2023-05-02T17:55:48.079Z,90.40
2023-05-02T17:58:16.067Z,90.50
2023-05-02T18:00:44.067Z,90.50
2023-05-02T18:03:12.017Z,90.60
2023-05-02T18:05:41.040Z,90.70
2023-05-02T18:08:08.903Z,90.80
2023-05-02T18:10:42.685Z,90.80
2023-05-02T18:13:10.898Z,90.90
2023-05-02T18:15:38.767Z,90.90
2023-05-02T18:18:06.774Z,91.10
2023-05-02T18:20:39.437Z,91.10
2023-05-02T18:23:07.834Z,91.20
2023-05-02T18:25:35.867Z,91.10
2023-05-02T18:28:05.145Z,91.20
2023-05-02T18:30:36.474Z,91.30
2023-05-02T18:33:04.574Z,91.40
2023-05-02T18:35:32.516Z,91.40
2023-05-02T18:38:00.420Z,91.30
2023-05-02T18:40:28.472Z,91.50
2023-05-02T18:42:56.328Z,91.70
2023-05-02T18:45:26.277Z,91.50
2023-05-02T18:47:54.167Z,91.30
2023-05-02T18:50:22.499Z,91.10
2023-05-02T18:52:50.349Z,90.90
2023-05-02T18:55:18.351Z,91.20
2023-05-02T18:57:46.856Z,91.10
2023-05-02T19:00:15.266Z,91.10
2023-05-02T19:02:44.624Z,91.00
2023-05-02T19:05:12.666Z,91.30
2023-05-02T19:07:40.530Z,91.10
2023-05-02T19:10:09.117Z,91.10
2023-05-02T19:12:37.119Z,91.10
2023-05-02T19:15:06.663Z,91.10
2023-05-02T19:17:35.209Z,91.10
2023-05-02T19:20:04.842Z,91.20
2023-05-02T19:22:34.678Z,91.10
2023-05-02T19:25:02.884Z,91.40
2023-05-02T19:27:31.260Z,91.20
2023-05-02T19:29:59.658Z,91.40
2023-05-02T19:32:27.690Z,91.30
2023-05-02T19:34:56.784Z,91.20
2023-05-02T19:37:26.018Z,90.70
2023-05-02T19:39:53.943Z,90.80
2023-05-02T19:42:21.784Z,90.70
2023-05-02T19:44:50.753Z,90.90
2023-05-02T19:47:18.695Z,91.10
2023-05-02T19:49:46.703Z,91.20
2023-05-02T19:52:14.594Z,91.20
2023-05-02T19:54:43.851Z,91.20
2023-05-02T19:57:11.784Z,91.20
2023-05-02T19:59:39.654Z,91.30
2023-05-02T20:02:09.440Z,91.20
2023-05-02T20:04:39.515Z,91.50
2023-05-02T20:07:07.424Z,91.60
2023-05-02T20:09:35.502Z,91.60
2023-05-02T20:12:05.243Z,91.50
2023-05-02T20:14:33.229Z,91.60
2023-05-02T20:17:02.202Z,91.90
2023-05-02T20:19:32.232Z,91.80
2023-05-02T20:22:00.131Z,91.90
2023-05-02T20:24:28.090Z,91.80
2023-05-02T20:26:57.757Z,92.00
2023-05-02T20:29:26.995Z,92.00
2023-05-02T20:31:56.501Z,92.20
2023-05-02T20:34:24.695Z,91.90
2023-05-02T20:36:56.516Z,91.70
2023-05-02T20:39:24.732Z,91.70
2023-05-02T20:41:52.800Z,91.70
2023-05-02T20:44:22.488Z,91.70
2023-05-02T20:46:52.551Z,91.80
2023-05-02T20:49:21.860Z,91.90
2023-05-02T20:51:50.431Z,91.80
2023-05-02T20:54:19.163Z,91.50
2023-05-02T20:56:47.084Z,91.80
2023-05-02T20:59:14.943Z,91.90
2023-05-02T21:01:42.839Z,91.80
2023-05-02T21:04:12.252Z,92.00
2023-05-02T21:06:40.240Z,91.90
2023-05-02T21:09:09.361Z,91.80
2023-05-02T21:11:37.188Z,91.90
2023-05-02T21:14:05.115Z,91.90
2023-05-02T21:16:33.126Z,91.90
2023-05-02T21:19:01.092Z,92.10
2023-05-02T21:21:30.678Z,92.20
2023-05-02T21:23:59.175Z,92.00
2023-05-02T21:26:27.130Z,92.10
2023-05-02T21:28:55.053Z,92.10
2023-05-02T21:31:22.996Z,92.20
2023-05-02T21:33:50.851Z,92.20
2023-05-02T21:36:18.750Z,92.10
2023-05-02T21:38:47.963Z,92.30
2023-05-02T21:41:16.013Z,92.20
2023-05-02T21:43:44.717Z,92.30
2023-05-02T21:46:13.039Z,92.50
2023-05-02T21:48:41.124Z,92.40
2023-05-02T21:51:09.319Z,92.40
2023-05-02T21:53:37.366Z,92.40
2023-05-02T21:56:07.866Z,92.40
2023-05-02T21:58:35.772Z,92.40
2023-05-02T22:01:03.939Z,92.30
2023-05-02T22:03:33.658Z,92.30
2023-05-02T22:06:05.770Z,92.40
2023-05-02T22:08:34.568Z,92.30
2023-05-02T22:11:09.125Z,92.40
2023-05-02T22:13:37.281Z,92.40
2023-05-02T22:16:05.662Z,92.40
2023-05-02T22:18:33.572Z,92.20
2023-05-02T22:21:02.120Z,92.40
2023-05-02T22:23:30.992Z,92.40
2023-05-02T22:25:59.463Z,92.20
2023-05-02T22:28:28.776Z,92.30
2023-05-02T22:30:56.729Z,92.30
2023-05-02T22:33:24.987Z,92.20
2023-05-02T22:35:52.897Z,92.20
2023-05-02T22:38:21.228Z,92.10
2023-05-02T22:40:49.158Z,92.30
2023-05-02T22:43:17.364Z,92.20
2023-05-02T22:45:46.624Z,92.20
2023-05-02T22:48:14.461Z,92.30
2023-05-02T22:50:43.141Z,92.20
2023-05-02T22:53:11.074Z,92.60
2023-05-02T22:55:39.647Z,92.00
2023-05-02T22:58:07.655Z,92.10
2023-05-02T23:00:35.661Z,91.90
2023-05-02T23:03:05.068Z,92.00
